Parksville, Canada
Current Conditions -  °F | °C
As of 8:00 AM on Thursday 30 Oct 2014 (Local Time) from CYCD Reporting Station
Light Rain Light Rain  
Wind Chill: 50°   Ceiling: 10000
Heat Index: 50°   Visibility: 20mi
Dew Point: 50°   Wind: 3mph
Humidity: 100%   Direction: 180°S
Pressure: 29.84"   Gusts: NA
Location:  49.32°N, 124.31°W
Report Text: CYCD 301500Z 18003KT 090V240 20SM -RA FEW030 FEW060 OVC100 10/10 A2984 RMK SC1SC1AC6 SLP104
Loading
Personal Weather Stations






























Interactive Weather Map New forecast layout! Learn more

10-Day Weather Forecast

Advertisements
Track Severe Weather on mobile